sensor_id;sensor_type;location;lat;lon;timestamp;P1;durP1;ratioP1;P2;durP2;ratioP2
13252;SDS011;6693;54.370;10.132;2023-04-15T00:00:06;12.65;;;5.15;;
13252;SDS011;6693;54.370;10.132;2023-04-15T00:01:09;12.63;;;6.35;;
13252;SDS011;6693;54.370;10.132;2023-04-15T00:02:18;13.00;;;5.32;;
13252;SDS011;6693;54.370;10.132;2023-04-15T00:03:18;13.77;;;6.63;;
13252;SDS011;6693;54.370;10.132;2023-04-15T00:04:22;13.82;;;6.68;;
13252;SDS011;6693;54.370;10.132;2023-04-15T00:05:23;15.25;;;7.47;;
13252;SDS011;6693;54.370;10.132;2023-04-15T00:06:26;13.98;;;6.07;;
13252;SDS011;6693;54.370;10.132;2023-04-15T00:07:26;12.57;;;6.00;;
13252;SDS011;6693;54.370;10.132;2023-04-15T00:08:30;14.38;;;6.40;;
13252;SDS011;6693;54.370;10.132;2023-04-15T00:09:31;13.57;;;6.72;;
13252;SDS011;6693;54.370;10.132;2023-04-15T00:10:37;13.63;;;6.60;;
13252;SDS011;6693;54.370;10.132;2023-04-15T00:11:37;13.07;;;6.72;;
13252;SDS011;6693;54.370;10.132;2023-04-15T00:12:41;13.13;;;6.57;;
13252;SDS011;6693;54.370;10.132;2023-04-15T00:13:41;14.05;;;5.68;;
13252;SDS011;6693;54.370;10.132;2023-04-15T00:14:45;13.93;;;6.38;;
13252;SDS011;6693;54.370;10.132;2023-04-15T00:15:45;13.18;;;6.80;;
13252;SDS011;6693;54.370;10.132;2023-04-15T00:16:49;14.65;;;6.50;;
13252;SDS011;6693;54.370;10.132;2023-04-15T00:17:55;15.27;;;6.70;;
13252;SDS011;6693;54.370;10.132;2023-04-15T00:18:58;14.68;;;6.88;;
13252;SDS011;6693;54.370;10.132;2023-04-15T00:19:59;13.00;;;6.93;;
13252;SDS011;6693;54.370;10.132;2023-04-15T00:21:02;15.18;;;6.80;;
13252;SDS011;6693;54.370;10.132;2023-04-15T00:22:03;15.60;;;6.68;;
13252;SDS011;6693;54.370;10.132;2023-04-15T00:23:07;13.90;;;6.60;;
13252;SDS011;6693;54.370;10.132;2023-04-15T00:24:07;14.38;;;7.10;;
13252;SDS011;6693;54.370;10.132;2023-04-15T00:25:10;16.30;;;7.40;;
13252;SDS011;6693;54.370;10.132;2023-04-15T00:26:14;13.15;;;5.38;;
13252;SDS011;6693;54.370;10.132;2023-04-15T00:27:18;14.10;;;6.93;;
13252;SDS011;6693;54.370;10.132;2023-04-15T00:28:19;11.80;;;6.43;;
13252;SDS011;6693;54.370;10.132;2023-04-15T00:29:22;13.50;;;6.38;;
13252;SDS011;6693;54.370;10.132;2023-04-15T00:30:23;15.50;;;6.55;;
13252;SDS011;6693;54.370;10.132;2023-04-15T00:31:27;14.05;;;6.53;;
13252;SDS011;6693;54.370;10.132;2023-04-15T00:32:27;13.80;;;7.18;;
13252;SDS011;6693;54.370;10.132;2023-04-15T00:33:30;14.50;;;6.70;;
13252;SDS011;6693;54.370;10.132;2023-04-15T00:34:31;13.88;;;5.97;;
13252;SDS011;6693;54.370;10.132;2023-04-15T00:35:35;13.02;;;6.22;;
13252;SDS011;6693;54.370;10.132;2023-04-15T00:36:36;14.25;;;5.85;;
13252;SDS011;6693;54.370;10.132;2023-04-15T00:37:39;12.23;;;6.22;;
13252;SDS011;6693;54.370;10.132;2023-04-15T00:38:40;15.23;;;7.18;;
13252;SDS011;6693;54.370;10.132;2023-04-15T00:39:43;15.57;;;7.00;;
13252;SDS011;6693;54.370;10.132;2023-04-15T00:40:44;13.88;;;6.75;;
13252;SDS011;6693;54.370;10.132;2023-04-15T00:41:50;12.02;;;5.68;;
13252;SDS011;6693;54.370;10.132;2023-04-15T00:42:51;15.73;;;7.03;;
13252;SDS011;6693;54.370;10.132;2023-04-15T00:43:54;12.10;;;5.95;;
13252;SDS011;6693;54.370;10.132;2023-04-15T00:44:55;15.68;;;6.60;;
13252;SDS011;6693;54.370;10.132;2023-04-15T00:45:58;13.90;;;6.43;;
13252;SDS011;6693;54.370;10.132;2023-04-15T00:46:59;14.00;;;6.70;;
13252;SDS011;6693;54.370;10.132;2023-04-15T00:48:03;13.30;;;6.18;;
13252;SDS011;6693;54.370;10.132;2023-04-15T00:49:05;12.38;;;6.03;;
13252;SDS011;6693;54.370;10.132;2023-04-15T00:50:09;14.75;;;6.00;;
13252;SDS011;6693;54.370;10.132;2023-04-15T00:51:12;12.73;;;6.13;;
13252;SDS011;6693;54.370;10.132;2023-04-15T00:52:15;12.55;;;6.45;;
13252;SDS011;6693;54.370;10.132;2023-04-15T00:53:16;12.52;;;6.70;;
13252;SDS011;6693;54.370;10.132;2023-04-15T00:54:19;13.10;;;6.82;;
13252;SDS011;6693;54.370;10.132;2023-04-15T00:55:20;14.27;;;7.43;;
13252;SDS011;6693;54.370;10.132;2023-04-15T00:56:24;13.98;;;6.32;;
13252;SDS011;6693;54.370;10.132;2023-04-15T00:57:28;13.32;;;6.47;;
13252;SDS011;6693;54.370;10.132;2023-04-15T00:58:32;12.60;;;5.38;;
13252;SDS011;6693;54.370;10.132;2023-04-15T00:59:33;13.52;;;6.20;;
13252;SDS011;6693;54.370;10.132;2023-04-15T01:00:37;13.75;;;6.72;;
13252;SDS011;6693;54.370;10.132;2023-04-15T01:01:38;14.13;;;5.75;;
13252;SDS011;6693;54.370;10.132;2023-04-15T01:02:41;15.57;;;6.63;;
13252;SDS011;6693;54.370;10.132;2023-04-15T01:03:42;14.90;;;6.95;;
13252;SDS011;6693;54.370;10.132;2023-04-15T01:04:45;13.20;;;5.75;;
13252;SDS011;6693;54.370;10.132;2023-04-15T01:05:46;13.65;;;6.10;;
13252;SDS011;6693;54.370;10.132;2023-04-15T01:06:50;13.63;;;6.15;;
13252;SDS011;6693;54.370;10.132;2023-04-15T01:07:51;11.80;;;5.68;;
13252;SDS011;6693;54.370;10.132;2023-04-15T01:08:54;13.20;;;5.68;;
13252;SDS011;6693;54.370;10.132;2023-04-15T01:09:55;13.27;;;6.53;;
13252;SDS011;6693;54.370;10.132;2023-04-15T01:10:59;13.75;;;7.05;;
13252;SDS011;6693;54.370;10.132;2023-04-15T01:12:00;12.18;;;5.97;;
13252;SDS011;6693;54.370;10.132;2023-04-15T01:13:06;12.13;;;6.30;;
13252;SDS011;6693;54.370;10.132;2023-04-15T01:14:07;14.52;;;6.32;;
13252;SDS011;6693;54.370;10.132;2023-04-15T01:15:11;12.82;;;6.57;;
13252;SDS011;6693;54.370;10.132;2023-04-15T01:16:12;14.00;;;6.10;;
13252;SDS011;6693;54.370;10.132;2023-04-15T01:17:15;14.77;;;6.55;;
13252;SDS011;6693;54.370;10.132;2023-04-15T01:18:16;13.73;;;6.80;;
13252;SDS011;6693;54.370;10.132;2023-04-15T01:19:20;14.75;;;6.78;;
13252;SDS011;6693;54.370;10.132;2023-04-15T01:20:21;13.45;;;5.57;;
13252;SDS011;6693;54.370;10.132;2023-04-15T01:21:24;15.98;;;6.70;;
13252;SDS011;6693;54.370;10.132;2023-04-15T01:22:26;15.00;;;6.72;;
13252;SDS011;6693;54.370;10.132;2023-04-15T01:23:29;15.98;;;6.85;;
13252;SDS011;6693;54.370;10.132;2023-04-15T01:24:31;14.85;;;6.85;;
13252;SDS011;6693;54.370;10.132;2023-04-15T01:25:37;14.43;;;6.68;;
13252;SDS011;6693;54.370;10.132;2023-04-15T01:26:38;14.02;;;6.90;;
13252;SDS011;6693;54.370;10.132;2023-04-15T01:27:42;14.55;;;6.60;;
13252;SDS011;6693;54.370;10.132;2023-04-15T01:28:43;16.00;;;6.38;;
13252;SDS011;6693;54.370;10.132;2023-04-15T01:29:46;13.23;;;5.60;;
13252;SDS011;6693;54.370;10.132;2023-04-15T01:30:47;16.63;;;6.72;;
13252;SDS011;6693;54.370;10.132;2023-04-15T01:31:50;15.52;;;7.25;;
13252;SDS011;6693;54.370;10.132;2023-04-15T01:32:51;15.10;;;7.10;;
13252;SDS011;6693;54.370;10.132;2023-04-15T01:33:55;17.63;;;6.88;;
13252;SDS011;6693;54.370;10.132;2023-04-15T01:34:55;16.58;;;7.20;;
13252;SDS011;6693;54.370;10.132;2023-04-15T01:35:58;15.35;;;6.93;;
13252;SDS011;6693;54.370;10.132;2023-04-15T01:36:59;18.20;;;7.45;;
13252;SDS011;6693;54.370;10.132;2023-04-15T01:38:04;17.98;;;7.53;;
13252;SDS011;6693;54.370;10.132;2023-04-15T01:39:05;16.05;;;7.53;;
13252;SDS011;6693;54.370;10.132;2023-04-15T01:40:09;16.15;;;7.22;;
13252;SDS011;6693;54.370;10.132;2023-04-15T01:41:12;16.85;;;8.15;;
13252;SDS011;6693;54.370;10.132;2023-04-15T01:42:16;17.10;;;6.97;;
13252;SDS011;6693;54.370;10.132;2023-04-15T01:43:16;18.20;;;7.57;;
13252;SDS011;6693;54.370;10.132;2023-04-15T01:44:20;15.52;;;7.18;;
13252;SDS011;6693;54.370;10.132;2023-04-15T01:45:20;17.05;;;7.70;;
13252;SDS011;6693;54.370;10.132;2023-04-15T01:46:23;18.65;;;7.88;;
13252;SDS011;6693;54.370;10.132;2023-04-15T01:47:24;19.40;;;7.35;;
13252;SDS011;6693;54.370;10.132;2023-04-15T01:48:27;17.77;;;8.57;;
13252;SDS011;6693;54.370;10.132;2023-04-15T01:49:29;18.95;;;8.02;;
13252;SDS011;6693;54.370;10.132;2023-04-15T01:50:34;19.13;;;8.35;;
13252;SDS011;6693;54.370;10.132;2023-04-15T01:51:35;15.55;;;7.45;;
13252;SDS011;6693;54.370;10.132;2023-04-15T01:52:39;19.45;;;8.15;;
13252;SDS011;6693;54.370;10.132;2023-04-15T01:53:40;20.63;;;8.93;;
13252;SDS011;6693;54.370;10.132;2023-04-15T01:54:43;17.05;;;7.95;;
13252;SDS011;6693;54.370;10.132;2023-04-15T01:55:44;18.77;;;7.35;;
13252;SDS011;6693;54.370;10.132;2023-04-15T01:56:50;18.80;;;8.23;;
13252;SDS011;6693;54.370;10.132;2023-04-15T01:57:51;19.45;;;8.85;;
13252;SDS011;6693;54.370;10.132;2023-04-15T01:58:54;20.38;;;8.85;;
13252;SDS011;6693;54.370;10.132;2023-04-15T01:59:55;20.10;;;8.73;;
13252;SDS011;6693;54.370;10.132;2023-04-15T02:00:58;18.73;;;7.82;;
13252;SDS011;6693;54.370;10.132;2023-04-15T02:01:59;18.02;;;8.38;;
13252;SDS011;6693;54.370;10.132;2023-04-15T02:03:02;22.23;;;8.80;;
13252;SDS011;6693;54.370;10.132;2023-04-15T02:04:03;20.13;;;7.95;;
13252;SDS011;6693;54.370;10.132;2023-04-15T02:05:06;22.10;;;8.20;;
13252;SDS011;6693;54.370;10.132;2023-04-15T02:06:07;17.85;;;8.65;;
13252;SDS011;6693;54.370;10.132;2023-04-15T02:07:11;18.65;;;8.05;;
13252;SDS011;6693;54.370;10.132;2023-04-15T02:08:12;20.50;;;9.43;;
13252;SDS011;6693;54.370;10.132;2023-04-15T02:09:15;18.15;;;8.18;;
13252;SDS011;6693;54.370;10.132;2023-04-15T02:10:16;18.63;;;8.40;;
13252;SDS011;6693;54.370;10.132;2023-04-15T02:11:19;19.40;;;8.77;;
13252;SDS011;6693;54.370;10.132;2023-04-15T02:12:22;22.10;;;9.32;;
13252;SDS011;6693;54.370;10.132;2023-04-15T02:13:26;19.23;;;8.13;;
13252;SDS011;6693;54.370;10.132;2023-04-15T02:14:26;21.23;;;10.02;;
13252;SDS011;6693;54.370;10.132;2023-04-15T02:15:30;19.52;;;9.10;;
13252;SDS011;6693;54.370;10.132;2023-04-15T02:17:35;19.20;;;8.05;;
13252;SDS011;6693;54.370;10.132;2023-04-15T02:18:36;19.67;;;8.70;;
13252;SDS011;6693;54.370;10.132;2023-04-15T02:19:39;19.90;;;8.95;;
13252;SDS011;6693;54.370;10.132;2023-04-15T02:20:40;21.15;;;8.88;;
13252;SDS011;6693;54.370;10.132;2023-04-15T02:21:43;18.42;;;8.73;;
13252;SDS011;6693;54.370;10.132;2023-04-15T02:22:44;24.08;;;8.73;;
13252;SDS011;6693;54.370;10.132;2023-04-15T02:23:47;19.08;;;8.82;;
13252;SDS011;6693;54.370;10.132;2023-04-15T02:24:48;21.08;;;8.05;;
13252;SDS011;6693;54.370;10.132;2023-04-15T02:25:51;20.92;;;8.88;;
13252;SDS011;6693;54.370;10.132;2023-04-15T02:26:51;19.75;;;9.38;;
13252;SDS011;6693;54.370;10.132;2023-04-15T02:27:58;22.58;;;10.00;;
13252;SDS011;6693;54.370;10.132;2023-04-15T02:28:59;19.38;;;9.43;;
13252;SDS011;6693;54.370;10.132;2023-04-15T02:30:02;19.13;;;9.02;;
13252;SDS011;6693;54.370;10.132;2023-04-15T02:31:04;22.38;;;10.35;;
13252;SDS011;6693;54.370;10.132;2023-04-15T02:32:08;19.17;;;7.93;;
13252;SDS011;6693;54.370;10.132;2023-04-15T02:33:10;21.35;;;10.20;;
13252;SDS011;6693;54.370;10.132;2023-04-15T02:34:13;19.83;;;8.18;;
13252;SDS011;6693;54.370;10.132;2023-04-15T02:35:14;22.02;;;9.85;;
13252;SDS011;6693;54.370;10.132;2023-04-15T02:36:18;21.77;;;9.00;;
13252;SDS011;6693;54.370;10.132;2023-04-15T02:37:20;22.35;;;9.85;;
13252;SDS011;6693;54.370;10.132;2023-04-15T02:38:26;21.17;;;9.68;;
13252;SDS011;6693;54.370;10.132;2023-04-15T02:39:26;22.45;;;10.07;;
13252;SDS011;6693;54.370;10.132;2023-04-15T02:40:29;23.30;;;9.02;;
13252;SDS011;6693;54.370;10.132;2023-04-15T02:41:30;23.25;;;10.38;;
13252;SDS011;6693;54.370;10.132;2023-04-15T02:42:34;20.77;;;8.98;;
13252;SDS011;6693;54.370;10.132;2023-04-15T02:43:37;19.75;;;9.18;;
13252;SDS011;6693;54.370;10.132;2023-04-15T02:44:40;23.27;;;10.20;;
13252;SDS011;6693;54.370;10.132;2023-04-15T02:45:41;21.83;;;9.30;;
13252;SDS011;6693;54.370;10.132;2023-04-15T02:46:44;23.20;;;9.35;;
13252;SDS011;6693;54.370;10.132;2023-04-15T02:47:47;19.70;;;8.88;;
13252;SDS011;6693;54.370;10.132;2023-04-15T02:48:51;20.20;;;9.15;;
13252;SDS011;6693;54.370;10.132;2023-04-15T02:49:52;22.88;;;9.00;;
13252;SDS011;6693;54.370;10.132;2023-04-15T02:51:10;20.60;;;9.02;;
13252;SDS011;6693;54.370;10.132;2023-04-15T02:52:14;23.50;;;9.63;;
13252;SDS011;6693;54.370;10.132;2023-04-15T02:53:15;20.38;;;8.27;;
13252;SDS011;6693;54.370;10.132;2023-04-15T02:54:19;21.77;;;9.50;;
13252;SDS011;6693;54.370;10.132;2023-04-15T02:55:21;19.40;;;9.10;;
13252;SDS011;6693;54.370;10.132;2023-04-15T02:56:25;18.98;;;8.25;;
13252;SDS011;6693;54.370;10.132;2023-04-15T02:57:26;22.40;;;9.02;;
13252;SDS011;6693;54.370;10.132;2023-04-15T02:58:30;20.75;;;9.50;;
13252;SDS011;6693;54.370;10.132;2023-04-15T02:59:33;20.58;;;8.98;;
13252;SDS011;6693;54.370;10.132;2023-04-15T03:00:36;22.27;;;9.48;;
13252;SDS011;6693;54.370;10.132;2023-04-15T03:01:37;20.08;;;9.05;;
13252;SDS011;6693;54.370;10.132;2023-04-15T03:02:41;22.88;;;9.57;;
13252;SDS011;6693;54.370;10.132;2023-04-15T03:03:42;21.92;;;10.07;;
13252;SDS011;6693;54.370;10.132;2023-04-15T03:04:45;22.35;;;10.00;;
13252;SDS011;6693;54.370;10.132;2023-04-15T03:05:45;21.88;;;9.15;;
13252;SDS011;6693;54.370;10.132;2023-04-15T03:06:48;19.77;;;9.07;;
13252;SDS011;6693;54.370;10.132;2023-04-15T03:07:49;20.10;;;9.57;;
13252;SDS011;6693;54.370;10.132;2023-04-15T03:08:52;22.02;;;10.20;;
13252;SDS011;6693;54.370;10.132;2023-04-15T03:09:53;22.13;;;10.40;;
13252;SDS011;6693;54.370;10.132;2023-04-15T03:10:57;21.90;;;9.35;;
13252;SDS011;6693;54.370;10.132;2023-04-15T03:11:59;24.17;;;10.18;;
13252;SDS011;6693;54.370;10.132;2023-04-15T03:13:03;24.90;;;10.60;;
13252;SDS011;6693;54.370;10.132;2023-04-15T03:14:03;20.08;;;9.13;;
13252;SDS011;6693;54.370;10.132;2023-04-15T03:15:09;25.00;;;10.45;;
13252;SDS011;6693;54.370;10.132;2023-04-15T03:16:10;19.77;;;8.43;;
13252;SDS011;6693;54.370;10.132;2023-04-15T03:17:14;22.92;;;9.98;;
13252;SDS011;6693;54.370;10.132;2023-04-15T03:18:14;24.48;;;11.50;;
13252;SDS011;6693;54.370;10.132;2023-04-15T03:19:18;23.67;;;11.32;;
13252;SDS011;6693;54.370;10.132;2023-04-15T03:20:18;25.52;;;10.77;;
13252;SDS011;6693;54.370;10.132;2023-04-15T03:21:22;26.25;;;10.88;;
13252;SDS011;6693;54.370;10.132;2023-04-15T03:22:23;27.55;;;11.15;;
13252;SDS011;6693;54.370;10.132;2023-04-15T03:23:26;24.27;;;9.70;;
13252;SDS011;6693;54.370;10.132;2023-04-15T03:24:27;28.58;;;11.15;;
13252;SDS011;6693;54.370;10.132;2023-04-15T03:25:30;25.10;;;10.80;;
13252;SDS011;6693;54.370;10.132;2023-04-15T03:26:31;31.77;;;12.30;;
13252;SDS011;6693;54.370;10.132;2023-04-15T03:27:34;29.15;;;10.63;;
13252;SDS011;6693;54.370;10.132;2023-04-15T03:28:35;30.58;;;12.25;;
13252;SDS011;6693;54.370;10.132;2023-04-15T03:29:38;29.88;;;11.70;;
13252;SDS011;6693;54.370;10.132;2023-04-15T03:30:42;27.85;;;12.32;;
13252;SDS011;6693;54.370;10.132;2023-04-15T03:31:45;26.98;;;11.68;;
13252;SDS011;6693;54.370;10.132;2023-04-15T03:32:46;27.02;;;11.43;;
13252;SDS011;6693;54.370;10.132;2023-04-15T03:33:49;31.45;;;11.73;;
13252;SDS011;6693;54.370;10.132;2023-04-15T03:34:49;29.48;;;11.52;;
13252;SDS011;6693;54.370;10.132;2023-04-15T03:35:53;28.17;;;12.70;;
13252;SDS011;6693;54.370;10.132;2023-04-15T03:36:53;28.33;;;12.05;;
13252;SDS011;6693;54.370;10.132;2023-04-15T03:37:56;32.53;;;13.13;;
13252;SDS011;6693;54.370;10.132;2023-04-15T03:38:57;26.67;;;11.07;;
13252;SDS011;6693;54.370;10.132;2023-04-15T03:40:01;32.42;;;13.95;;
13252;SDS011;6693;54.370;10.132;2023-04-15T03:41:01;34.72;;;13.80;;
13252;SDS011;6693;54.370;10.132;2023-04-15T03:42:05;33.92;;;12.45;;
13252;SDS011;6693;54.370;10.132;2023-04-15T03:43:05;26.65;;;11.52;;
13252;SDS011;6693;54.370;10.132;2023-04-15T03:44:08;33.60;;;13.77;;
13252;SDS011;6693;54.370;10.132;2023-04-15T03:45:10;32.72;;;13.43;;
13252;SDS011;6693;54.370;10.132;2023-04-15T03:46:16;34.00;;;13.30;;
13252;SDS011;6693;54.370;10.132;2023-04-15T03:47:16;29.23;;;13.32;;
13252;SDS011;6693;54.370;10.132;2023-04-15T03:48:20;34.45;;;14.25;;
13252;SDS011;6693;54.370;10.132;2023-04-15T03:49:20;29.88;;;11.98;;
13252;SDS011;6693;54.370;10.132;2023-04-15T03:50:23;33.60;;;13.73;;
13252;SDS011;6693;54.370;10.132;2023-04-15T03:51:24;36.90;;;14.35;;
13252;SDS011;6693;54.370;10.132;2023-04-15T03:52:28;35.67;;;14.40;;
13252;SDS011;6693;54.370;10.132;2023-04-15T03:53:28;32.22;;;12.88;;
13252;SDS011;6693;54.370;10.132;2023-04-15T03:54:31;32.53;;;13.18;;
13252;SDS011;6693;54.370;10.132;2023-04-15T03:55:32;33.25;;;12.98;;
13252;SDS011;6693;54.370;10.132;2023-04-15T03:56:36;35.92;;;14.93;;
13252;SDS011;6693;54.370;10.132;2023-04-15T03:57:36;36.47;;;14.23;;
13252;SDS011;6693;54.370;10.132;2023-04-15T03:58:39;36.03;;;14.60;;
13252;SDS011;6693;54.370;10.132;2023-04-15T03:59:40;33.53;;;13.00;;
13252;SDS011;6693;54.370;10.132;2023-04-15T04:00:43;32.00;;;13.02;;
13252;SDS011;6693;54.370;10.132;2023-04-15T04:01:46;34.78;;;13.70;;
13252;SDS011;6693;54.370;10.132;2023-04-15T04:02:50;31.10;;;13.43;;
13252;SDS011;6693;54.370;10.132;2023-04-15T04:03:51;36.35;;;14.40;;
13252;SDS011;6693;54.370;10.132;2023-04-15T04:04:54;34.92;;;13.95;;
13252;SDS011;6693;54.370;10.132;2023-04-15T04:05:54;39.83;;;15.60;;
13252;SDS011;6693;54.370;10.132;2023-04-15T04:06:58;42.15;;;15.55;;
13252;SDS011;6693;54.370;10.132;2023-04-15T04:07:58;35.72;;;12.75;;
13252;SDS011;6693;54.370;10.132;2023-04-15T04:09:01;39.38;;;14.18;;
13252;SDS011;6693;54.370;10.132;2023-04-15T04:10:02;36.33;;;13.80;;
13252;SDS011;6693;54.370;10.132;2023-04-15T04:11:06;33.90;;;13.77;;
13252;SDS011;6693;54.370;10.132;2023-04-15T04:12:07;36.42;;;15.32;;
13252;SDS011;6693;54.370;10.132;2023-04-15T04:13:10;38.25;;;15.05;;
13252;SDS011;6693;54.370;10.132;2023-04-15T04:14:11;39.53;;;15.48;;
13252;SDS011;6693;54.370;10.132;2023-04-15T04:15:14;39.55;;;15.05;;
13252;SDS011;6693;54.370;10.132;2023-04-15T04:16:15;41.95;;;15.63;;
13252;SDS011;6693;54.370;10.132;2023-04-15T04:17:20;36.58;;;14.50;;
13252;SDS011;6693;54.370;10.132;2023-04-15T04:18:21;35.67;;;16.10;;
13252;SDS011;6693;54.370;10.132;2023-04-15T04:19:24;39.42;;;16.40;;
13252;SDS011;6693;54.370;10.132;2023-04-15T04:20:25;32.47;;;13.85;;
13252;SDS011;6693;54.370;10.132;2023-04-15T04:21:28;41.15;;;17.27;;
13252;SDS011;6693;54.370;10.132;2023-04-15T04:22:29;43.67;;;17.25;;
13252;SDS011;6693;54.370;10.132;2023-04-15T04:23:33;40.42;;;17.17;;
13252;SDS011;6693;54.370;10.132;2023-04-15T04:24:33;42.42;;;18.13;;
13252;SDS011;6693;54.370;10.132;2023-04-15T04:25:37;45.00;;;18.38;;
13252;SDS011;6693;54.370;10.132;2023-04-15T04:26:38;38.22;;;17.00;;
13252;SDS011;6693;54.370;10.132;2023-04-15T04:27:41;42.65;;;17.52;;
13252;SDS011;6693;54.370;10.132;2023-04-15T04:28:42;38.50;;;17.35;;
13252;SDS011;6693;54.370;10.132;2023-04-15T04:29:45;40.83;;;16.90;;
13252;SDS011;6693;54.370;10.132;2023-04-15T04:30:46;41.85;;;16.13;;
13252;SDS011;6693;54.370;10.132;2023-04-15T04:31:50;41.40;;;17.98;;
13252;SDS011;6693;54.370;10.132;2023-04-15T04:32:53;34.40;;;14.10;;
13252;SDS011;6693;54.370;10.132;2023-04-15T04:33:59;40.97;;;17.42;;
13252;SDS011;6693;54.370;10.132;2023-04-15T04:35:00;45.47;;;17.08;;
13252;SDS011;6693;54.370;10.132;2023-04-15T04:36:04;35.88;;;15.68;;
13252;SDS011;6693;54.370;10.132;2023-04-15T04:37:05;41.13;;;16.23;;
13252;SDS011;6693;54.370;10.132;2023-04-15T04:38:08;35.25;;;15.43;;
13252;SDS011;6693;54.370;10.132;2023-04-15T04:39:08;35.15;;;16.27;;
13252;SDS011;6693;54.370;10.132;2023-04-15T04:40:12;38.33;;;16.95;;
13252;SDS011;6693;54.370;10.132;2023-04-15T04:41:13;36.33;;;15.27;;
13252;SDS011;6693;54.370;10.132;2023-04-15T04:42:16;38.78;;;16.95;;
13252;SDS011;6693;54.370;10.132;2023-04-15T04:43:16;41.25;;;17.10;;
13252;SDS011;6693;54.370;10.132;2023-04-15T04:44:20;38.70;;;16.45;;
13252;SDS011;6693;54.370;10.132;2023-04-15T04:45:21;39.22;;;17.13;;
13252;SDS011;6693;54.370;10.132;2023-04-15T04:46:24;39.92;;;16.17;;
13252;SDS011;6693;54.370;10.132;2023-04-15T04:47:25;36.50;;;16.70;;
13252;SDS011;6693;54.370;10.132;2023-04-15T04:48:31;40.25;;;17.75;;
13252;SDS011;6693;54.370;10.132;2023-04-15T04:49:32;37.22;;;15.05;;
13252;SDS011;6693;54.370;10.132;2023-04-15T04:50:35;44.35;;;18.95;;
13252;SDS011;6693;54.370;10.132;2023-04-15T04:51:36;40.25;;;17.50;;
13252;SDS011;6693;54.370;10.132;2023-04-15T04:52:39;38.13;;;16.73;;
13252;SDS011;6693;54.370;10.132;2023-04-15T04:53:40;39.50;;;18.17;;
13252;SDS011;6693;54.370;10.132;2023-04-15T04:54:44;41.90;;;18.42;;
13252;SDS011;6693;54.370;10.132;2023-04-15T04:55:44;39.22;;;17.58;;
13252;SDS011;6693;54.370;10.132;2023-04-15T04:56:47;41.20;;;19.23;;
13252;SDS011;6693;54.370;10.132;2023-04-15T04:57:48;40.55;;;18.63;;
13252;SDS011;6693;54.370;10.132;2023-04-15T04:58:51;40.40;;;17.83;;
13252;SDS011;6693;54.370;10.132;2023-04-15T04:59:52;41.72;;;18.23;;
13252;SDS011;6693;54.370;10.132;2023-04-15T05:00:55;41.22;;;19.75;;
13252;SDS011;6693;54.370;10.132;2023-04-15T05:01:56;37.60;;;15.57;;
13252;SDS011;6693;54.370;10.132;2023-04-15T05:02:59;42.38;;;18.48;;
13252;SDS011;6693;54.370;10.132;2023-04-15T05:04:03;37.83;;;17.55;;
13252;SDS011;6693;54.370;10.132;2023-04-15T05:05:07;38.08;;;17.17;;
13252;SDS011;6693;54.370;10.132;2023-04-15T05:07:11;40.65;;;17.80;;
13252;SDS011;6693;54.370;10.132;2023-04-15T05:08:12;37.33;;;16.58;;
13252;SDS011;6693;54.370;10.132;2023-04-15T05:09:15;44.88;;;18.58;;
13252;SDS011;6693;54.370;10.132;2023-04-15T05:10:16;42.75;;;18.92;;
13252;SDS011;6693;54.370;10.132;2023-04-15T05:11:19;44.10;;;17.60;;
13252;SDS011;6693;54.370;10.132;2023-04-15T05:12:20;44.33;;;18.50;;
13252;SDS011;6693;54.370;10.132;2023-04-15T05:13:23;39.75;;;18.85;;
13252;SDS011;6693;54.370;10.132;2023-04-15T05:14:23;46.90;;;19.98;;
13252;SDS011;6693;54.370;10.132;2023-04-15T05:15:27;48.38;;;20.98;;
13252;SDS011;6693;54.370;10.132;2023-04-15T05:16:27;45.47;;;20.77;;
13252;SDS011;6693;54.370;10.132;2023-04-15T05:17:31;42.78;;;18.48;;
13252;SDS011;6693;54.370;10.132;2023-04-15T05:18:32;43.88;;;18.30;;
13252;SDS011;6693;54.370;10.132;2023-04-15T05:19:38;47.10;;;19.60;;
13252;SDS011;6693;54.370;10.132;2023-04-15T05:20:39;38.60;;;16.23;;
13252;SDS011;6693;54.370;10.132;2023-04-15T05:21:42;44.95;;;19.23;;
13252;SDS011;6693;54.370;10.132;2023-04-15T05:22:42;42.45;;;16.85;;
13252;SDS011;6693;54.370;10.132;2023-04-15T05:23:46;46.65;;;20.63;;
13252;SDS011;6693;54.370;10.132;2023-04-15T05:24:46;42.17;;;20.58;;
13252;SDS011;6693;54.370;10.132;2023-04-15T05:25:49;41.53;;;19.23;;
13252;SDS011;6693;54.370;10.132;2023-04-15T05:26:50;44.90;;;19.83;;
13252;SDS011;6693;54.370;10.132;2023-04-15T05:27:53;45.78;;;22.08;;
13252;SDS011;6693;54.370;10.132;2023-04-15T05:28:57;45.17;;;21.17;;
13252;SDS011;6693;54.370;10.132;2023-04-15T05:29:57;48.42;;;21.85;;
13252;SDS011;6693;54.370;10.132;2023-04-15T05:31:00;46.40;;;21.85;;
13252;SDS011;6693;54.370;10.132;2023-04-15T05:32:01;40.05;;;19.13;;
13252;SDS011;6693;54.370;10.132;2023-04-15T05:33:04;44.08;;;21.02;;
13252;SDS011;6693;54.370;10.132;2023-04-15T05:34:05;43.72;;;20.55;;
13252;SDS011;6693;54.370;10.132;2023-04-15T05:35:11;44.47;;;20.60;;
13252;SDS011;6693;54.370;10.132;2023-04-15T05:36:12;45.35;;;22.73;;
13252;SDS011;6693;54.370;10.132;2023-04-15T05:37:15;43.33;;;19.48;;
13252;SDS011;6693;54.370;10.132;2023-04-15T05:38:16;41.95;;;20.52;;
13252;SDS011;6693;54.370;10.132;2023-04-15T05:39:19;41.90;;;21.25;;
13252;SDS011;6693;54.370;10.132;2023-04-15T05:40:20;45.13;;;21.10;;
13252;SDS011;6693;54.370;10.132;2023-04-15T05:41:23;46.50;;;22.67;;
13252;SDS011;6693;54.370;10.132;2023-04-15T05:42:24;49.00;;;21.65;;
13252;SDS011;6693;54.370;10.132;2023-04-15T05:43:27;44.03;;;21.35;;
13252;SDS011;6693;54.370;10.132;2023-04-15T05:44:28;47.45;;;21.83;;
13252;SDS011;6693;54.370;10.132;2023-04-15T05:45:31;44.35;;;22.17;;
13252;SDS011;6693;54.370;10.132;2023-04-15T05:46:32;48.35;;;22.88;;
13252;SDS011;6693;54.370;10.132;2023-04-15T05:47:35;46.67;;;22.17;;
13252;SDS011;6693;54.370;10.132;2023-04-15T05:48:39;45.70;;;20.83;;
13252;SDS011;6693;54.370;10.132;2023-04-15T05:49:40;49.88;;;22.08;;
13252;SDS011;6693;54.370;10.132;2023-04-15T05:50:45;41.78;;;20.08;;
13252;SDS011;6693;54.370;10.132;2023-04-15T05:51:46;52.03;;;23.17;;
13252;SDS011;6693;54.370;10.132;2023-04-15T05:52:49;42.85;;;21.73;;
13252;SDS011;6693;54.370;10.132;2023-04-15T05:53:50;45.05;;;21.25;;
13252;SDS011;6693;54.370;10.132;2023-04-15T05:54:53;45.90;;;22.50;;
13252;SDS011;6693;54.370;10.132;2023-04-15T05:55:54;50.60;;;21.33;;
13252;SDS011;6693;54.370;10.132;2023-04-15T05:56:57;46.78;;;22.73;;
13252;SDS011;6693;54.370;10.132;2023-04-15T05:57:58;46.80;;;23.55;;
13252;SDS011;6693;54.370;10.132;2023-04-15T05:59:01;45.88;;;23.15;;
13252;SDS011;6693;54.370;10.132;2023-04-15T06:00:03;48.95;;;23.30;;
13252;SDS011;6693;54.370;10.132;2023-04-15T06:01:07;43.65;;;21.20;;
13252;SDS011;6693;54.370;10.132;2023-04-15T06:02:08;48.58;;;23.40;;
13252;SDS011;6693;54.370;10.132;2023-04-15T06:03:12;47.67;;;23.75;;
13252;SDS011;6693;54.370;10.132;2023-04-15T06:04:13;48.03;;;23.48;;
13252;SDS011;6693;54.370;10.132;2023-04-15T06:05:16;46.72;;;22.50;;
13252;SDS011;6693;54.370;10.132;2023-04-15T06:06:22;44.72;;;23.88;;
13252;SDS011;6693;54.370;10.132;2023-04-15T06:07:23;47.50;;;22.92;;
13252;SDS011;6693;54.370;10.132;2023-04-15T06:08:26;45.40;;;23.45;;
13252;SDS011;6693;54.370;10.132;2023-04-15T06:09:27;45.50;;;21.38;;